If you wish to contribute or participate in the discussions about articles you are invited to join SKYbrary as a registered user

 Actions

Colmar-Houssen Airport

From SKYbrary Wiki

LFGA
Airport
ICAO: LFGA – IATA: CMR
Summary
Name Colmar-Houssen Airport
Region Europe
Territory France FR.gif
Location , Alsace
Serving Colmar
Elevation 191.414 m
628 ft
628 ft191.414 m
Type medium airport
Coordinates 48° 6' 35.47" N, 7° 21' 32.44" E
Runways
Designator Length Width Surface ROPS
1/19 1610 m5,282.152 ft
30 m98.425 ft
ASP /


METAR
Observation LFGA 110830Z AUTO 18005KT 9999 -RA NSC 01/M01 Q1014
Station Colmar-Houssen
Date/Time 11 December 2019 08:30:00
Wind direction 180°
Wind speed 05 kts
Lowest cloud amount nil significant cloud
Temperature 1°C
Dew point
Humidity 86%
QNH 1014 hPa
Weather condition light rain